createdAt,value
2017-11-20T00:00:50.960Z,98.53
2017-11-20T00:01:50.944Z,97.30
2017-11-20T00:02:50.924Z,96.16
2017-11-20T00:03:50.916Z,95.97
2017-11-20T00:04:50.893Z,96.83
2017-11-20T00:05:50.884Z,98.44
2017-11-20T00:06:50.856Z,97.39
2017-11-20T00:07:50.845Z,96.64
2017-11-20T00:08:50.828Z,96.64
2017-11-20T00:09:50.812Z,96.64
2017-11-20T00:10:50.794Z,95.12
2017-11-20T00:11:50.778Z,94.56
2017-11-20T00:12:50.755Z,94.27
2017-11-20T00:13:50.734Z,94.27
2017-11-20T00:14:50.718Z,94.65
2017-11-20T00:15:50.707Z,94.74
2017-11-20T00:16:50.685Z,94.65
2017-11-20T00:17:50.674Z,95.03
2017-11-20T00:18:50.657Z,95.31
2017-11-20T00:19:50.637Z,94.93
2017-11-20T00:20:50.617Z,95.31
2017-11-20T00:21:50.599Z,94.65
2017-11-20T00:22:50.585Z,95.59
2017-11-20T00:23:50.566Z,95.69
2017-11-20T00:24:50.557Z,95.88
2017-11-20T00:25:50.536Z,96.73
2017-11-20T00:26:50.515Z,96.54
2017-11-20T00:27:50.501Z,96.64
2017-11-20T00:28:50.484Z,96.54
2017-11-20T00:29:50.462Z,96.07
2017-11-20T00:30:50.448Z,96.16
2017-11-20T00:31:50.434Z,96.07
2017-11-20T00:32:50.415Z,97.11
2017-11-20T00:33:50.392Z,97.02
2017-11-20T00:34:50.387Z,96.73
2017-11-20T00:35:50.363Z,96.07
2017-11-20T00:36:50.348Z,96.73
2017-11-20T00:37:50.334Z,96.54
2017-11-20T00:38:50.314Z,97.02
2017-11-20T00:39:50.288Z,96.92
2017-11-20T00:40:50.274Z,97.02
2017-11-20T00:41:50.255Z,96.83
2017-11-20T00:42:50.242Z,97.11
2017-11-20T00:43:50.229Z,96.92
2017-11-20T00:44:50.210Z,97.20
2017-11-20T00:45:50.203Z,97.68
2017-11-20T00:46:50.185Z,96.92
2017-11-20T00:47:50.150Z,96.64
2017-11-20T00:48:50.135Z,96.45
2017-11-20T00:49:50.120Z,97.02
2017-11-20T00:50:50.098Z,97.02
2017-11-20T00:51:50.081Z,97.11
2017-11-20T00:52:50.064Z,96.92
2017-11-20T00:53:50.055Z,97.49
2017-11-20T00:54:50.031Z,97.39
2017-11-20T00:55:50.013Z,97.39
2017-11-20T00:56:50.000Z,98.06
2017-11-20T00:57:49.978Z,97.87
2017-11-20T00:58:49.963Z,97.58
2017-11-20T00:59:49.950Z,96.92
2017-11-20T01:00:49.926Z,96.92
2017-11-20T01:01:49.921Z,96.92
2017-11-20T01:02:49.892Z,97.11
2017-11-20T01:03:49.876Z,97.11
2017-11-20T01:04:49.862Z,97.11
2017-11-20T01:05:49.848Z,97.49
2017-11-20T01:06:49.823Z,97.68
2017-11-20T01:07:49.812Z,97.39
2017-11-20T01:08:49.797Z,97.39
2017-11-20T01:09:49.775Z,97.58
2017-11-20T01:10:49.758Z,97.30
2017-11-20T01:11:49.752Z,97.68
2017-11-20T01:12:49.723Z,97.30
2017-11-20T01:13:49.712Z,97.49
2017-11-20T01:14:49.693Z,97.68
2017-11-20T01:15:49.673Z,97.58
2017-11-20T01:16:49.667Z,97.49
2017-11-20T01:17:49.643Z,98.15
2017-11-20T01:18:49.636Z,98.15
2017-11-20T01:19:49.604Z,98.63
2017-11-20T01:20:49.586Z,98.44
2017-11-20T01:21:49.565Z,98.06
2017-11-20T01:22:49.552Z,97.30
2017-11-20T01:23:49.536Z,97.87
2017-11-20T01:24:49.516Z,97.96
2017-11-20T01:25:49.497Z,98.53
2017-11-20T01:26:49.480Z,97.77
2017-11-20T01:27:49.477Z,97.58
2017-11-20T01:28:49.455Z,97.58
2017-11-20T01:29:49.435Z,97.30
2017-11-20T01:30:49.418Z,97.68
2017-11-20T01:31:49.393Z,97.58
2017-11-20T01:32:49.378Z,97.30
2017-11-20T01:33:49.366Z,98.10
2017-11-20T01:34:49.341Z,98.15
2017-11-20T01:35:49.326Z,97.58
2017-11-20T01:36:49.308Z,98.44
2017-11-20T01:37:49.294Z,97.68
2017-11-20T01:38:49.279Z,98.34
2017-11-20T01:39:49.261Z,98.53
2017-11-20T01:40:49.238Z,97.77
2017-11-20T01:41:49.227Z,98.44
2017-11-20T01:42:49.214Z,97.49
2017-11-20T01:43:49.188Z,96.07
2017-11-20T01:44:49.176Z,96.64
2017-11-20T01:45:49.154Z,96.07
2017-11-20T01:46:49.143Z,96.07
2017-11-20T01:47:49.147Z,96.16
2017-11-20T01:48:49.102Z,96.35
2017-11-20T01:49:49.099Z,96.35
2017-11-20T01:50:49.064Z,95.88
2017-11-20T01:51:49.064Z,95.97
2017-11-20T01:52:49.044Z,96.07
2017-11-20T01:53:49.022Z,96.26
2017-11-20T01:54:49.005Z,96.26
2017-11-20T01:55:48.989Z,96.83
2017-11-20T01:56:48.961Z,96.83
2017-11-20T01:57:48.943Z,95.97
2017-11-20T01:58:48.935Z,96.12
2017-11-20T01:59:48.908Z,96.16
2017-11-20T02:00:48.900Z,95.93
2017-11-20T02:01:48.877Z,96.21
2017-11-20T02:02:48.861Z,96.78
2017-11-20T02:03:48.839Z,96.88
2017-11-20T02:04:48.825Z,97.44
2017-11-20T02:05:48.810Z,97.96
2017-11-20T02:06:48.794Z,99.01
2017-11-20T02:07:48.782Z,98.82
2017-11-20T02:08:48.751Z,98.77
2017-11-20T02:09:48.734Z,98.25
2017-11-20T02:10:48.723Z,98.06
2017-11-20T02:11:48.711Z,98.29
2017-11-20T02:12:48.695Z,98.20
2017-11-20T02:13:48.669Z,97.44
2017-11-20T02:14:48.653Z,97.34
2017-11-20T02:15:48.626Z,97.44
2017-11-20T02:16:48.611Z,97.91
2017-11-20T02:17:48.591Z,98.39
2017-11-20T02:18:48.588Z,98.01
2017-11-20T02:19:48.558Z,98.20
2017-11-20T02:20:48.538Z,98.29
2017-11-20T02:21:48.525Z,97.82
2017-11-20T02:22:48.503Z,97.53
2017-11-20T02:23:48.494Z,97.44
2017-11-20T02:24:48.480Z,97.63
2017-11-20T02:25:48.457Z,97.06
2017-11-20T02:26:48.438Z,97.06
2017-11-20T02:27:48.421Z,97.53
2017-11-20T02:28:48.408Z,97.25
2017-11-20T02:29:48.402Z,97.63
2017-11-20T02:30:48.362Z,97.34
2017-11-20T02:31:48.346Z,97.63
2017-11-20T02:32:48.328Z,97.63
2017-11-20T02:33:48.317Z,98.34
2017-11-20T02:34:48.295Z,98.15
2017-11-20T02:35:48.282Z,98.06
2017-11-20T02:36:48.272Z,97.96
2017-11-20T02:37:48.242Z,97.87
2017-11-20T02:38:48.222Z,97.34
2017-11-20T02:39:48.206Z,97.44
2017-11-20T02:40:48.205Z,98.10
2017-11-20T02:41:48.169Z,98.48
2017-11-20T02:42:48.151Z,98.82
2017-11-20T02:43:48.136Z,99.10
2017-11-20T02:44:48.117Z,99.10
2017-11-20T02:45:48.098Z,99.99
2017-11-20T02:46:48.081Z,99.99
2017-11-20T02:47:48.076Z,99.85
2017-11-20T02:48:48.057Z,99.01
2017-11-20T02:49:48.030Z,97.30
2017-11-20T02:50:48.022Z,96.26
2017-11-20T02:51:48.000Z,96.92
2017-11-20T02:52:47.985Z,99.01
2017-11-20T02:53:47.961Z,98.34
2017-11-20T02:54:47.943Z,96.92
2017-11-20T02:55:47.924Z,95.50
2017-11-20T02:56:47.915Z,95.03
2017-11-20T02:57:47.898Z,95.03
2017-11-20T02:58:47.871Z,94.93
2017-11-20T02:59:47.858Z,95.21
2017-11-20T03:00:47.861Z,95.31
2017-11-20T03:01:47.824Z,96.16
2017-11-20T03:02:47.803Z,96.07
2017-11-20T03:03:47.784Z,96.26
2017-11-20T03:04:47.770Z,95.88
2017-11-20T03:05:47.754Z,95.97
2017-11-20T03:06:47.740Z,96.07
2017-11-20T03:07:47.719Z,96.16
2017-11-20T03:08:47.698Z,96.26
2017-11-20T03:09:47.683Z,96.92
2017-11-20T03:10:47.671Z,97.44
2017-11-20T03:11:47.651Z,96.69
2017-11-20T03:12:47.636Z,96.59
2017-11-20T03:13:47.618Z,96.50
2017-11-20T03:14:47.592Z,96.97
2017-11-20T03:15:47.588Z,96.88
2017-11-20T03:16:47.560Z,96.69
2017-11-20T03:17:47.540Z,96.69
2017-11-20T03:18:47.523Z,96.78
2017-11-20T03:19:47.505Z,97.06
2017-11-20T03:20:47.490Z,96.88
2017-11-20T03:21:47.471Z,96.78
2017-11-20T03:22:47.462Z,97.06
2017-11-20T03:23:47.441Z,97.25
2017-11-20T03:24:47.420Z,97.06
2017-11-20T03:25:47.414Z,96.88
2017-11-20T03:26:47.389Z,97.16
2017-11-20T03:27:47.379Z,97.44
2017-11-20T03:28:47.349Z,97.34
2017-11-20T03:29:47.337Z,97.44
2017-11-20T03:30:47.317Z,97.63
2017-11-20T03:31:47.296Z,98.29
2017-11-20T03:32:47.284Z,98.10
2017-11-20T03:33:47.259Z,97.44
2017-11-20T03:34:47.253Z,97.72
2017-11-20T03:35:47.226Z,97.53
2017-11-20T03:36:47.212Z,97.53
2017-11-20T03:37:47.200Z,97.44
2017-11-20T03:38:47.187Z,99.15
2017-11-20T03:39:47.161Z,98.63
2017-11-20T03:40:47.140Z,98.53
2017-11-20T03:41:47.127Z,97.49
2017-11-20T03:42:47.105Z,98.15
2017-11-20T03:43:47.087Z,97.68
2017-11-20T03:44:47.068Z,97.02
2017-11-20T03:45:47.052Z,96.83
2017-11-20T03:46:47.045Z,96.64
2017-11-20T03:47:47.036Z,96.92
2017-11-20T03:48:47.007Z,96.73
2017-11-20T03:49:46.982Z,96.64
2017-11-20T03:50:46.966Z,96.45
2017-11-20T03:51:46.948Z,96.45
2017-11-20T03:52:46.932Z,96.73
2017-11-20T03:53:46.916Z,96.73
2017-11-20T03:54:46.902Z,97.06
2017-11-20T03:55:46.885Z,96.88
2017-11-20T03:56:46.862Z,96.88
2017-11-20T03:57:46.843Z,97.53
2017-11-20T03:58:46.845Z,97.34
2017-11-20T03:59:46.807Z,98.10
2017-11-20T04:00:46.790Z,97.91
2017-11-20T04:01:46.778Z,98.20
2017-11-20T04:02:46.755Z,98.10
2017-11-20T04:03:46.744Z,98.10
2017-11-20T04:04:46.722Z,98.10
2017-11-20T04:05:46.705Z,98.10
2017-11-20T04:06:46.691Z,98.39
2017-11-20T04:07:46.674Z,98.10
2017-11-20T04:08:46.653Z,98.48
2017-11-20T04:09:46.644Z,98.39
2017-11-20T04:10:46.624Z,98.10
2017-11-20T04:11:46.599Z,98.48
2017-11-20T04:12:46.587Z,98.77
2017-11-20T04:13:46.565Z,98.58
2017-11-20T04:14:46.545Z,98.39
2017-11-20T04:15:46.534Z,98.10
2017-11-20T04:16:46.522Z,98.29
2017-11-20T04:17:46.511Z,98.58
2017-11-20T04:18:46.485Z,98.39
2017-11-20T04:19:46.463Z,98.67
2017-11-20T04:20:46.448Z,98.67
2017-11-20T04:21:46.429Z,98.10
2017-11-20T04:22:46.414Z,98.58
2017-11-20T04:23:46.390Z,98.48
2017-11-20T04:24:46.380Z,98.10
2017-11-20T04:25:46.357Z,98.48
2017-11-20T04:26:46.356Z,98.77
2017-11-20T04:27:46.321Z,98.20
2017-11-20T04:28:46.311Z,98.96
2017-11-20T04:29:46.286Z,98.67
2017-11-20T04:30:46.273Z,99.15
2017-11-20T04:31:46.251Z,99.15
2017-11-20T04:32:46.234Z,99.05
2017-11-20T04:33:46.235Z,98.67
2017-11-20T04:34:46.199Z,98.96
2017-11-20T04:35:46.182Z,98.77
2017-11-20T04:36:46.162Z,98.20
2017-11-20T04:37:46.153Z,98.29
2017-11-20T04:38:46.136Z,98.58
2017-11-20T04:39:46.111Z,98.63
2017-11-20T04:40:46.094Z,98.44
2017-11-20T04:41:46.084Z,98.53
2017-11-20T04:42:46.061Z,98.44
2017-11-20T04:43:46.043Z,98.25
2017-11-20T04:44:46.024Z,98.15
2017-11-20T04:45:46.008Z,98.15
2017-11-20T04:46:46.004Z,98.15
2017-11-20T04:47:45.971Z,98.44
2017-11-20T04:48:45.960Z,98.10
2017-11-20T04:49:45.946Z,97.77
2017-11-20T04:50:45.922Z,98.34
2017-11-20T04:51:45.905Z,99.99
2017-11-20T04:52:45.900Z,99.19
2017-11-20T04:53:45.877Z,98.53
2017-11-20T04:54:45.851Z,98.72
2017-11-20T04:55:45.839Z,99.01
2017-11-20T04:56:45.825Z,98.91
2017-11-20T04:57:45.800Z,98.15
2017-11-20T04:58:45.782Z,96.64
2017-11-20T04:59:45.764Z,96.64
2017-11-20T05:00:45.761Z,96.07
2017-11-20T05:01:45.731Z,95.40
2017-11-20T05:02:45.724Z,95.12
2017-11-20T05:03:45.703Z,95.40
2017-11-20T05:04:45.686Z,95.88
2017-11-20T05:05:45.668Z,96.26
2017-11-20T05:06:45.651Z,96.64
2017-11-20T05:07:45.638Z,96.92
2017-11-20T05:08:45.612Z,95.69
2017-11-20T05:09:45.599Z,96.83
2017-11-20T05:10:45.577Z,96.83
2017-11-20T05:11:45.558Z,97.02
2017-11-20T05:12:45.550Z,96.92
2017-11-20T05:13:45.523Z,96.92
2017-11-20T05:14:45.505Z,97.39
2017-11-20T05:15:45.489Z,97.30
2017-11-20T05:16:45.473Z,96.92
2017-11-20T05:17:45.453Z,96.92
2017-11-20T05:18:45.442Z,97.58
2017-11-20T05:19:45.420Z,96.83
2017-11-20T05:20:45.404Z,96.92
2017-11-20T05:21:45.386Z,97.02
2017-11-20T05:22:45.373Z,96.83
2017-11-20T05:23:45.358Z,96.73
2017-11-20T05:24:45.335Z,97.11
2017-11-20T05:25:45.323Z,96.64
2017-11-20T05:26:45.315Z,96.92
2017-11-20T05:27:45.288Z,96.92
2017-11-20T05:28:45.267Z,96.45
2017-11-20T05:29:45.256Z,96.54
2017-11-20T05:30:45.234Z,96.64
2017-11-20T05:31:45.224Z,95.97
2017-11-20T05:32:45.210Z,96.07
2017-11-20T05:33:45.185Z,96.07
2017-11-20T05:34:45.162Z,96.16
2017-11-20T05:35:45.146Z,95.88
2017-11-20T05:36:45.130Z,95.31
2017-11-20T05:37:45.111Z,95.40
2017-11-20T05:38:45.093Z,95.31
2017-11-20T05:39:45.080Z,95.97
2017-11-20T05:40:45.068Z,95.88
2017-11-20T05:41:45.041Z,96.07
2017-11-20T05:42:45.034Z,96.16
2017-11-20T05:43:45.010Z,95.59
2017-11-20T05:44:45.001Z,95.50
2017-11-20T05:45:44.982Z,95.31
2017-11-20T05:46:44.958Z,95.88
2017-11-20T05:47:44.953Z,95.59
2017-11-20T05:48:44.922Z,96.07
2017-11-20T05:49:44.913Z,96.16
2017-11-20T05:50:44.895Z,95.88
2017-11-20T05:51:44.885Z,96.26
2017-11-20T05:52:44.856Z,96.07
2017-11-20T05:53:44.837Z,95.88
2017-11-20T05:54:44.825Z,97.39
2017-11-20T05:55:44.810Z,97.49
2017-11-20T05:56:44.791Z,97.68
2017-11-20T05:57:44.774Z,96.35
2017-11-20T05:58:44.756Z,95.03
2017-11-20T05:59:44.758Z,95.40
2017-11-20T06:00:44.715Z,95.31
2017-11-20T06:01:44.707Z,97.68
2017-11-20T06:02:44.681Z,96.16
2017-11-20T06:03:44.677Z,95.97
2017-11-20T06:04:44.658Z,95.59
2017-11-20T06:05:44.629Z,95.97
2017-11-20T06:06:44.621Z,95.31
2017-11-20T06:07:44.608Z,95.50
2017-11-20T06:08:44.594Z,95.88
2017-11-20T06:09:44.581Z,95.40
2017-11-20T06:10:44.579Z,95.69
2017-11-20T06:11:44.539Z,95.50
2017-11-20T06:12:44.528Z,96.16
2017-11-20T06:13:44.496Z,95.97
2017-11-20T06:14:44.481Z,95.97
2017-11-20T06:15:44.470Z,95.97
2017-11-20T06:16:44.449Z,95.97
2017-11-20T06:17:44.424Z,97.20
2017-11-20T06:18:44.409Z,96.26
2017-11-20T06:19:44.398Z,95.69
2017-11-20T06:20:44.384Z,95.40
2017-11-20T06:21:44.356Z,95.12
2017-11-20T06:22:44.347Z,95.31
2017-11-20T06:23:44.336Z,95.03
2017-11-20T06:24:44.312Z,95.31
2017-11-20T06:25:44.288Z,95.12
2017-11-20T06:26:44.297Z,95.31
2017-11-20T06:27:44.253Z,95.59
2017-11-20T06:28:44.236Z,95.21
2017-11-20T06:29:44.217Z,95.21
2017-11-20T06:30:44.205Z,95.78
2017-11-20T06:31:44.183Z,95.69
2017-11-20T06:32:44.166Z,95.88
2017-11-20T06:33:44.166Z,96.07
2017-11-20T06:34:44.137Z,95.40
2017-11-20T06:35:44.113Z,96.16
2017-11-20T06:36:44.097Z,95.97
2017-11-20T06:37:44.080Z,96.26
2017-11-20T06:38:44.060Z,97.68
2017-11-20T06:39:44.055Z,96.07
2017-11-20T06:40:44.026Z,95.31
2017-11-20T06:41:44.016Z,95.03
2017-11-20T06:42:43.998Z,95.78
2017-11-20T06:43:43.976Z,94.93
2017-11-20T06:44:43.959Z,94.84
2017-11-20T06:45:43.944Z,94.56
2017-11-20T06:46:43.933Z,94.65
2017-11-20T06:47:43.905Z,94.74
2017-11-20T06:48:43.889Z,96.73
2017-11-20T06:49:43.876Z,95.59
2017-11-20T06:50:43.853Z,95.12
2017-11-20T06:51:43.840Z,95.69
2017-11-20T06:52:43.829Z,95.31
2017-11-20T06:53:43.809Z,95.31
2017-11-20T06:54:43.789Z,95.03
2017-11-20T06:55:43.769Z,94.56
2017-11-20T06:56:43.749Z,94.56
2017-11-20T06:57:43.743Z,95.03
2017-11-20T06:58:43.713Z,95.31
2017-11-20T06:59:43.709Z,95.21
2017-11-20T07:00:43.689Z,95.31
2017-11-20T07:01:43.667Z,95.12
2017-11-20T07:02:43.652Z,95.21
2017-11-20T07:03:43.631Z,95.59
2017-11-20T07:04:43.608Z,95.69
2017-11-20T07:05:43.601Z,95.40
2017-11-20T07:06:43.576Z,95.21
2017-11-20T07:07:43.560Z,95.03
2017-11-20T07:08:43.545Z,95.31
2017-11-20T07:09:43.524Z,95.12
2017-11-20T07:10:43.509Z,95.03
2017-11-20T07:11:43.491Z,95.21
2017-11-20T07:12:43.480Z,95.40
2017-11-20T07:13:43.461Z,95.40
2017-11-20T07:14:43.440Z,94.65
2017-11-20T07:15:43.437Z,94.46
2017-11-20T07:16:43.411Z,94.46
2017-11-20T07:17:43.399Z,95.03
2017-11-20T07:18:43.374Z,95.21
2017-11-20T07:19:43.360Z,94.74
2017-11-20T07:20:43.344Z,95.12
2017-11-20T07:21:43.318Z,94.37
2017-11-20T07:22:43.315Z,93.80
2017-11-20T07:23:43.293Z,93.89
2017-11-20T07:24:43.275Z,93.42
2017-11-20T07:25:43.250Z,93.42
2017-11-20T07:26:43.240Z,94.23
2017-11-20T07:27:43.224Z,94.74
2017-11-20T07:28:43.207Z,93.51
2017-11-20T07:29:43.181Z,93.23
2017-11-20T07:30:43.170Z,93.32
2017-11-20T07:31:43.157Z,93.37
2017-11-20T07:32:43.138Z,93.56
2017-11-20T07:33:43.112Z,93.94
2017-11-20T07:34:43.095Z,93.94
2017-11-20T07:35:43.078Z,93.18
2017-11-20T07:36:43.061Z,93.37
2017-11-20T07:37:43.044Z,93.65
2017-11-20T07:38:43.027Z,93.37
2017-11-20T07:39:43.016Z,93.56
2017-11-20T07:40:42.998Z,93.46
2017-11-20T07:41:42.990Z,93.84
2017-11-20T07:42:42.970Z,93.84
2017-11-20T07:43:42.943Z,93.37
2017-11-20T07:44:42.931Z,93.37
2017-11-20T07:45:42.918Z,93.08
2017-11-20T07:46:42.891Z,93.37
2017-11-20T07:47:42.877Z,93.37
2017-11-20T07:48:42.866Z,93.27
2017-11-20T07:49:42.849Z,93.18
2017-11-20T07:50:42.824Z,93.08
2017-11-20T07:51:42.814Z,93.08
2017-11-20T07:52:42.792Z,93.65
2017-11-20T07:53:42.775Z,93.37
2017-11-20T07:54:42.756Z,93.56
2017-11-20T07:55:42.752Z,93.65
2017-11-20T07:56:42.737Z,93.08
2017-11-20T07:57:42.706Z,93.84
2017-11-20T07:58:42.688Z,93.18
2017-11-20T07:59:42.677Z,91.86
2017-11-20T08:00:42.672Z,91.76
2017-11-20T08:01:42.672Z,92.71
2017-11-20T08:02:42.623Z,92.90
2017-11-20T08:03:42.615Z,91.76
2017-11-20T08:04:42.587Z,91.86
2017-11-20T08:05:42.577Z,91.76
2017-11-20T08:06:42.555Z,92.33
2017-11-20T08:07:42.536Z,92.24
2017-11-20T08:08:42.525Z,91.86
2017-11-20T08:09:42.507Z,91.57
2017-11-20T08:10:42.485Z,91.76
2017-11-20T08:11:42.476Z,91.76
2017-11-20T08:12:42.464Z,92.05
2017-11-20T08:13:42.437Z,91.76
2017-11-20T08:14:42.419Z,91.95
2017-11-20T08:15:42.401Z,91.57
2017-11-20T08:16:42.385Z,90.53
2017-11-20T08:17:42.386Z,91.29
2017-11-20T08:18:42.354Z,91.19
2017-11-20T08:19:42.346Z,91.10
2017-11-20T08:20:42.320Z,91.29
2017-11-20T08:21:42.310Z,91.29
2017-11-20T08:22:42.296Z,92.61
2017-11-20T08:23:42.278Z,91.33
2017-11-20T08:24:42.260Z,91.71
2017-11-20T08:25:42.238Z,91.05
2017-11-20T08:26:42.221Z,91.43
2017-11-20T08:27:42.209Z,92.09
2017-11-20T08:28:42.191Z,92.38
2017-11-20T08:29:42.174Z,92.57
2017-11-20T08:30:42.159Z,92.19
2017-11-20T08:31:42.143Z,91.71
2017-11-20T08:32:42.122Z,91.43
2017-11-20T08:33:42.104Z,91.24
2017-11-20T08:34:42.095Z,91.52
2017-11-20T08:35:42.091Z,91.62
2017-11-20T08:36:42.055Z,91.62
2017-11-20T08:37:42.044Z,90.67
2017-11-20T08:38:42.029Z,90.67
2017-11-20T08:39:42.016Z,90.86
2017-11-20T08:40:41.991Z,91.24
2017-11-20T08:41:41.974Z,92.00
2017-11-20T08:42:41.963Z,92.94
2017-11-20T08:43:41.942Z,91.52
2017-11-20T08:44:41.927Z,90.95
2017-11-20T08:45:41.909Z,89.72
2017-11-20T08:46:41.904Z,88.59
2017-11-20T08:47:41.877Z,89.15
2017-11-20T08:48:41.866Z,88.30
2017-11-20T08:49:41.844Z,88.11
2017-11-20T08:50:41.829Z,88.40
2017-11-20T08:51:41.820Z,88.11
2017-11-20T08:52:41.805Z,88.49
2017-11-20T08:53:41.781Z,88.49
2017-11-20T08:54:41.765Z,87.83
2017-11-20T08:55:41.758Z,87.92
2017-11-20T08:56:41.734Z,88.30
2017-11-20T08:57:41.716Z,89.06
2017-11-20T08:58:41.699Z,89.06
2017-11-20T08:59:41.682Z,89.63
2017-11-20T09:00:41.666Z,88.49
2017-11-20T09:01:41.658Z,88.78
2017-11-20T09:02:41.634Z,88.30
2017-11-20T09:03:41.616Z,89.15
2017-11-20T09:04:41.607Z,89.34
2017-11-20T09:05:41.585Z,88.40
2017-11-20T09:06:41.573Z,88.59
2017-11-20T09:07:41.558Z,88.87
2017-11-20T09:08:41.536Z,89.06
2017-11-20T09:09:41.521Z,89.06
2017-11-20T09:10:41.504Z,91.33
2017-11-20T09:11:41.497Z,89.91
2017-11-20T09:12:41.471Z,90.39
2017-11-20T09:13:41.461Z,90.29
2017-11-20T09:14:41.444Z,89.91
2017-11-20T09:15:41.423Z,88.78
2017-11-20T09:16:41.406Z,90.39
2017-11-20T09:17:41.389Z,89.15
2017-11-20T09:18:41.384Z,88.11
2017-11-20T09:19:41.358Z,88.68
2017-11-20T09:20:41.341Z,88.49
2017-11-20T09:21:41.330Z,88.68
2017-11-20T09:22:41.309Z,88.49
2017-11-20T09:23:41.292Z,88.78
2017-11-20T09:24:41.278Z,87.83
2017-11-20T09:25:41.263Z,88.11
2017-11-20T09:26:41.262Z,88.78
2017-11-20T09:27:41.241Z,88.49
2017-11-20T09:28:41.220Z,88.68
2017-11-20T09:29:41.195Z,88.49
2017-11-20T09:30:41.180Z,87.26
2017-11-20T09:31:41.164Z,89.06
2017-11-20T09:32:41.148Z,88.11
2017-11-20T09:33:41.133Z,87.26
2017-11-20T09:34:41.116Z,86.88
2017-11-20T09:35:41.115Z,86.35
2017-11-20T09:36:41.085Z,88.30
2017-11-20T09:37:41.068Z,86.41
2017-11-20T09:38:41.058Z,86.79
2017-11-20T09:39:41.043Z,86.41
2017-11-20T09:40:41.030Z,86.03
2017-11-20T09:41:41.019Z,86.12
2017-11-20T09:42:40.989Z,87.07
2017-11-20T09:43:40.986Z,86.41
2017-11-20T09:44:40.958Z,86.79
2017-11-20T09:45:40.950Z,87.26
2017-11-20T09:46:40.927Z,86.55
2017-11-20T09:47:40.908Z,87.21
2017-11-20T09:48:40.901Z,87.49
2017-11-20T09:49:40.889Z,86.35
2017-11-20T09:50:40.872Z,86.22
2017-11-20T09:51:40.845Z,86.35
2017-11-20T09:52:40.831Z,86.74
2017-11-20T09:53:40.827Z,86.64
2017-11-20T09:54:40.797Z,87.02
2017-11-20T09:55:40.782Z,87.12
2017-11-20T09:56:40.769Z,87.49
2017-11-20T09:57:40.758Z,87.40
2017-11-20T09:58:40.740Z,89.67
2017-11-20T09:59:40.726Z,88.16
2017-11-20T10:00:40.704Z,86.07
2017-11-20T10:01:40.695Z,84.55
2017-11-20T10:02:40.679Z,85.03
2017-11-20T10:03:40.656Z,84.17
2017-11-20T10:04:40.642Z,85.13
2017-11-20T10:05:40.642Z,84.27
2017-11-20T10:06:40.623Z,86.64
2017-11-20T10:07:40.596Z,84.27
2017-11-20T10:08:40.583Z,83.51
2017-11-20T10:09:40.562Z,83.80
2017-11-20T10:10:40.561Z,83.61
2017-11-20T10:11:40.546Z,83.89
2017-11-20T10:12:40.515Z,84.08
2017-11-20T10:13:40.501Z,86.74
2017-11-20T10:14:40.485Z,85.36
2017-11-20T10:15:40.481Z,84.74
2017-11-20T10:16:40.468Z,83.70
2017-11-20T10:17:40.443Z,83.89
2017-11-20T10:18:40.425Z,83.70
2017-11-20T10:19:40.417Z,83.61
2017-11-20T10:20:40.412Z,83.98
2017-11-20T10:21:40.378Z,83.80
2017-11-20T10:22:40.361Z,84.36
2017-11-20T10:23:40.346Z,84.55
2017-11-20T10:24:40.346Z,84.41
2017-11-20T10:25:40.316Z,82.94
2017-11-20T10:26:40.302Z,84.59
2017-11-20T10:27:40.285Z,83.46
2017-11-20T10:28:40.275Z,84.12
2017-11-20T10:29:40.255Z,83.27
2017-11-20T10:30:40.242Z,83.46
2017-11-20T10:31:40.230Z,83.74
2017-11-20T10:32:40.212Z,83.74
2017-11-20T10:33:40.202Z,83.65
2017-11-20T10:34:40.189Z,83.46
2017-11-20T10:35:40.171Z,82.89
2017-11-20T10:36:40.148Z,83.84
2017-11-20T10:37:40.143Z,83.74
2017-11-20T10:38:40.120Z,85.36
2017-11-20T10:39:40.103Z,82.89
2017-11-20T10:40:40.092Z,81.85
2017-11-20T10:41:40.072Z,82.79
2017-11-20T10:42:40.069Z,83.46
2017-11-20T10:43:40.044Z,84.03
2017-11-20T10:44:40.034Z,83.27
2017-11-20T10:45:40.019Z,83.17
2017-11-20T10:46:39.997Z,82.79
2017-11-20T10:47:39.986Z,83.74
2017-11-20T10:48:39.969Z,84.50
2017-11-20T10:49:39.961Z,84.08
2017-11-20T10:50:39.939Z,83.13
2017-11-20T10:51:39.928Z,84.03
2017-11-20T10:52:39.909Z,83.74
2017-11-20T10:53:39.893Z,83.23
2017-11-20T10:54:39.879Z,84.36
2017-11-20T10:55:39.868Z,84.59
2017-11-20T10:56:39.857Z,83.27
2017-11-20T10:57:39.835Z,83.46
2017-11-20T10:58:39.831Z,83.13
2017-11-20T10:59:39.808Z,82.94
2017-11-20T11:00:39.801Z,83.08
2017-11-20T11:01:39.780Z,84.27
2017-11-20T11:02:39.771Z,82.94
2017-11-20T11:03:39.752Z,84.27
2017-11-20T11:04:39.730Z,83.04
2017-11-20T11:05:39.722Z,82.37
2017-11-20T11:06:39.699Z,82.85
2017-11-20T11:07:39.692Z,83.65
2017-11-20T11:08:39.668Z,82.94
2017-11-20T11:09:39.651Z,82.75
2017-11-20T11:10:39.637Z,82.09
2017-11-20T11:11:39.635Z,82.70
2017-11-20T11:12:39.608Z,82.98
2017-11-20T11:13:39.596Z,82.42
2017-11-20T11:14:39.586Z,82.23
2017-11-20T11:15:39.567Z,82.89
2017-11-20T11:16:39.555Z,84.12
2017-11-20T11:17:39.538Z,82.32
2017-11-20T11:18:39.531Z,83.46
2017-11-20T11:19:39.502Z,82.60
2017-11-20T11:20:39.486Z,82.60
2017-11-20T11:21:39.482Z,84.12
2017-11-20T11:22:39.457Z,83.84
2017-11-20T11:23:39.441Z,82.23
2017-11-20T11:24:39.436Z,82.60
2017-11-20T11:25:39.416Z,81.66
2017-11-20T11:26:39.397Z,82.04
2017-11-20T11:27:39.382Z,81.47
2017-11-20T11:28:39.368Z,81.56
2017-11-20T11:29:39.352Z,80.80
2017-11-20T11:30:39.337Z,80.80
2017-11-20T11:31:39.326Z,82.04
2017-11-20T11:32:39.314Z,80.71
2017-11-20T11:33:39.293Z,82.13
2017-11-20T11:34:39.282Z,82.42
2017-11-20T11:35:39.262Z,83.08
2017-11-20T11:36:39.248Z,83.27
2017-11-20T11:37:39.231Z,82.13
2017-11-20T11:38:39.225Z,80.80
2017-11-20T11:39:39.208Z,80.99
2017-11-20T11:40:39.194Z,81.94
2017-11-20T11:41:39.173Z,81.56
2017-11-20T11:42:39.157Z,81.27
2017-11-20T11:43:39.144Z,82.23
2017-11-20T11:44:39.134Z,80.90
2017-11-20T11:45:39.121Z,82.42
2017-11-20T11:46:39.109Z,79.95
2017-11-20T11:47:39.089Z,79.76
2017-11-20T11:48:39.069Z,81.32
2017-11-20T11:49:39.059Z,80.65
2017-11-20T11:50:39.045Z,82.17
2017-11-20T11:51:39.024Z,82.08
2017-11-20T11:52:39.030Z,79.90
2017-11-20T11:53:38.997Z,79.04
2017-11-20T11:54:38.999Z,79.61
2017-11-20T11:55:38.967Z,81.88
2017-11-20T11:56:38.953Z,79.90
2017-11-20T11:57:38.940Z,79.42
2017-11-20T11:58:38.937Z,79.42
2017-11-20T11:59:38.907Z,80.46
2017-11-20T12:00:38.903Z,79.90
2017-11-20T12:01:38.877Z,79.80
2017-11-20T12:02:38.871Z,80.18
2017-11-20T12:03:38.855Z,82.65
2017-11-20T12:04:38.834Z,80.75
2017-11-20T12:05:38.820Z,79.90
2017-11-20T12:06:38.818Z,79.90
2017-11-20T12:07:38.793Z,79.90
2017-11-20T12:08:38.776Z,79.71
2017-11-20T12:09:38.768Z,78.75
2017-11-20T12:10:38.749Z,78.56
2017-11-20T12:11:38.738Z,78.85
2017-11-20T12:12:38.720Z,78.75
2017-11-20T12:13:38.709Z,78.85
2017-11-20T12:14:38.697Z,79.04
2017-11-20T12:15:38.687Z,82.27
2017-11-20T12:16:38.669Z,80.94
2017-11-20T12:17:38.657Z,79.61
2017-11-20T12:18:38.631Z,79.42
2017-11-20T12:19:38.618Z,80.84
2017-11-20T12:20:38.611Z,79.52
2017-11-20T12:21:38.587Z,78.28
2017-11-20T12:22:38.577Z,77.52
2017-11-20T12:23:38.564Z,78.80
2017-11-20T12:24:38.556Z,80.08
2017-11-20T12:25:38.541Z,78.03
2017-11-20T12:26:38.519Z,77.81
2017-11-20T12:27:38.503Z,77.18
2017-11-20T12:28:38.498Z,78.56
2017-11-20T12:29:38.476Z,77.90
2017-11-20T12:30:38.475Z,77.52
2017-11-20T12:31:38.455Z,79.27
2017-11-20T12:32:38.440Z,80.69
2017-11-20T12:33:38.418Z,77.75
2017-11-20T12:34:38.403Z,78.70
2017-11-20T12:35:38.389Z,79.08
2017-11-20T12:36:38.383Z,77.56
2017-11-20T12:37:38.360Z,78.89
2017-11-20T12:38:38.356Z,77.47
2017-11-20T12:39:38.333Z,79.74
2017-11-20T12:40:38.328Z,76.99
2017-11-20T12:41:38.303Z,77.18
2017-11-20T12:42:38.290Z,77.94
2017-11-20T12:43:38.275Z,78.03
2017-11-20T12:44:38.261Z,76.52
2017-11-20T12:45:38.262Z,78.03
2017-11-20T12:46:38.234Z,75.67
2017-11-20T12:47:38.225Z,75.85
2017-11-20T12:48:38.210Z,75.85
2017-11-20T12:49:38.192Z,77.66
2017-11-20T12:50:38.188Z,76.14
2017-11-20T12:51:38.173Z,75.95
2017-11-20T12:52:38.156Z,76.52